sensor_id;sensor_type;location;lat;lon;timestamp;pressure;altitude;pressure_sealevel;temperature;humidity
10852;BME280;5479;52.046;6.314;2023-06-26T00:00:42;101092.38;;;22.82;100.00
10852;BME280;5479;52.046;6.314;2023-06-26T00:03:10;101089.00;;;22.80;100.00
10852;BME280;5479;52.046;6.314;2023-06-26T00:05:41;101092.38;;;22.82;100.00
10852;BME280;5479;52.046;6.314;2023-06-26T00:08:09;101084.97;;;22.76;100.00
10852;BME280;5479;52.046;6.314;2023-06-26T00:10:38;101079.53;;;22.68;100.00
10852;BME280;5479;52.046;6.314;2023-06-26T00:13:07;101088.09;;;22.64;100.00
10852;BME280;5479;52.046;6.314;2023-06-26T00:15:38;101083.31;;;22.58;100.00
10852;BME280;5479;52.046;6.314;2023-06-26T00:18:07;101075.00;;;22.51;100.00
10852;BME280;5479;52.046;6.314;2023-06-26T00:20:35;101069.25;;;22.46;100.00
10852;BME280;5479;52.046;6.314;2023-06-26T00:23:03;101070.25;;;22.45;100.00
10852;BME280;5479;52.046;6.314;2023-06-26T00:25:34;101068.56;;;22.44;100.00
10852;BME280;5479;52.046;6.314;2023-06-26T00:28:02;101060.31;;;22.46;100.00
10852;BME280;5479;52.046;6.314;2023-06-26T00:30:31;101066.88;;;22.43;100.00
10852;BME280;5479;52.046;6.314;2023-06-26T00:32:59;101058.94;;;22.42;100.00
10852;BME280;5479;52.046;6.314;2023-06-26T00:35:27;101057.56;;;22.38;100.00
10852;BME280;5479;52.046;6.314;2023-06-26T00:37:55;101057.19;;;22.33;100.00
10852;BME280;5479;52.046;6.314;2023-06-26T00:40:23;101057.34;;;22.31;100.00
10852;BME280;5479;52.046;6.314;2023-06-26T00:42:53;101055.66;;;22.30;100.00
10852;BME280;5479;52.046;6.314;2023-06-26T00:45:21;101041.84;;;22.33;100.00
10852;BME280;5479;52.046;6.314;2023-06-26T00:47:50;101041.50;;;22.28;100.00
10852;BME280;5479;52.046;6.314;2023-06-26T00:50:18;101039.63;;;22.29;100.00
10852;BME280;5479;52.046;6.314;2023-06-26T00:52:47;101038.09;;;22.26;100.00
10852;BME280;5479;52.046;6.314;2023-06-26T00:55:15;101042.31;;;22.29;100.00
10852;BME280;5479;52.046;6.314;2023-06-26T00:57:42;101035.09;;;22.29;100.00
10852;BME280;5479;52.046;6.314;2023-06-26T01:00:13;101042.66;;;22.26;100.00
10852;BME280;5479;52.046;6.314;2023-06-26T01:02:41;101025.63;;;22.25;100.00
10852;BME280;5479;52.046;6.314;2023-06-26T01:05:11;101027.66;;;22.23;100.00
10852;BME280;5479;52.046;6.314;2023-06-26T01:07:40;101033.03;;;22.23;100.00
10852;BME280;5479;52.046;6.314;2023-06-26T01:10:08;101023.59;;;22.27;100.00
10852;BME280;5479;52.046;6.314;2023-06-26T01:12:36;101022.25;;;22.23;100.00
10852;BME280;5479;52.046;6.314;2023-06-26T01:15:06;101027.31;;;22.26;100.00
10852;BME280;5479;52.046;6.314;2023-06-26T01:17:34;101021.19;;;22.16;100.00
10852;BME280;5479;52.046;6.314;2023-06-26T01:20:05;101017.44;;;22.09;100.00
10852;BME280;5479;52.046;6.314;2023-06-26T01:22:39;101022.16;;;22.07;100.00
10852;BME280;5479;52.046;6.314;2023-06-26T01:25:17;101013.34;;;22.05;100.00
10852;BME280;5479;52.046;6.314;2023-06-26T01:27:52;101016.09;;;22.13;100.00
10852;BME280;5479;52.046;6.314;2023-06-26T01:30:21;101015.28;;;22.20;100.00
10852;BME280;5479;52.046;6.314;2023-06-26T01:32:50;101024.56;;;22.18;100.00
10852;BME280;5479;52.046;6.314;2023-06-26T01:35:18;101021.50;;;22.13;100.00
10852;BME280;5479;52.046;6.314;2023-06-26T01:37:47;101026.22;;;22.11;100.00
10852;BME280;5479;52.046;6.314;2023-06-26T01:40:15;101026.38;;;22.09;100.00
10852;BME280;5479;52.046;6.314;2023-06-26T01:42:43;101015.97;;;22.14;100.00
10852;BME280;5479;52.046;6.314;2023-06-26T01:45:16;101014.69;;;22.01;100.00
10852;BME280;5479;52.046;6.314;2023-06-26T01:47:50;101018.69;;;21.97;100.00
10852;BME280;5479;52.046;6.314;2023-06-26T01:50:22;101013.31;;;21.97;100.00
10852;BME280;5479;52.046;6.314;2023-06-26T01:52:59;101010.63;;;21.97;100.00
10852;BME280;5479;52.046;6.314;2023-06-26T01:55:40;101017.16;;;21.94;100.00
10852;BME280;5479;52.046;6.314;2023-06-26T01:58:10;101014.66;;;21.93;100.00
10852;BME280;5479;52.046;6.314;2023-06-26T02:00:40;101019.19;;;21.92;100.00
10852;BME280;5479;52.046;6.314;2023-06-26T02:03:09;101021.63;;;21.86;100.00
10852;BME280;5479;52.046;6.314;2023-06-26T02:05:37;101030.38;;;21.80;100.00
10852;BME280;5479;52.046;6.314;2023-06-26T02:08:06;101028.84;;;21.77;100.00
10852;BME280;5479;52.046;6.314;2023-06-26T02:10:34;101038.38;;;21.72;100.00
10852;BME280;5479;52.046;6.314;2023-06-26T02:13:02;101035.31;;;21.67;100.00
10852;BME280;5479;52.046;6.314;2023-06-26T02:15:30;101036.78;;;21.61;100.00
10852;BME280;5479;52.046;6.314;2023-06-26T02:17:59;101033.72;;;21.56;100.00
10852;BME280;5479;52.046;6.314;2023-06-26T02:20:27;101044.81;;;21.53;100.00
10852;BME280;5479;52.046;6.314;2023-06-26T02:22:55;101049.47;;;21.51;100.00
10852;BME280;5479;52.046;6.314;2023-06-26T02:25:23;101043.94;;;21.52;100.00
10852;BME280;5479;52.046;6.314;2023-06-26T02:27:51;101042.78;;;21.55;100.00
10852;BME280;5479;52.046;6.314;2023-06-26T02:30:19;101043.66;;;21.55;100.00
10852;BME280;5479;52.046;6.314;2023-06-26T02:32:47;101056.66;;;21.60;100.00
10852;BME280;5479;52.046;6.314;2023-06-26T02:35:16;101064.38;;;21.81;100.00
10852;BME280;5479;52.046;6.314;2023-06-26T02:37:44;101054.31;;;21.83;100.00
10852;BME280;5479;52.046;6.314;2023-06-26T02:40:12;101067.88;;;21.91;100.00
10852;BME280;5479;52.046;6.314;2023-06-26T02:42:40;101056.75;;;21.94;100.00
10852;BME280;5479;52.046;6.314;2023-06-26T02:45:09;101052.91;;;21.96;100.00
10852;BME280;5479;52.046;6.314;2023-06-26T02:47:37;101049.06;;;21.99;100.00
10852;BME280;5479;52.046;6.314;2023-06-26T02:50:07;101054.66;;;22.05;100.00
10852;BME280;5479;52.046;6.314;2023-06-26T02:52:36;101050.81;;;22.08;100.00
10852;BME280;5479;52.046;6.314;2023-06-26T02:55:05;101055.81;;;22.03;100.00
10852;BME280;5479;52.046;6.314;2023-06-26T02:57:33;101042.66;;;22.00;100.00
10852;BME280;5479;52.046;6.314;2023-06-26T03:00:01;101054.78;;;21.96;100.00
10852;BME280;5479;52.046;6.314;2023-06-26T03:02:29;101059.81;;;21.91;100.00
10852;BME280;5479;52.046;6.314;2023-06-26T03:04:57;101061.97;;;21.87;100.00
10852;BME280;5479;52.046;6.314;2023-06-26T03:07:25;101071.16;;;21.85;100.00
10852;BME280;5479;52.046;6.314;2023-06-26T03:09:55;101076.88;;;21.82;100.00
10852;BME280;5479;52.046;6.314;2023-06-26T03:12:22;101073.50;;;21.80;100.00
10852;BME280;5479;52.046;6.314;2023-06-26T03:14:51;101078.03;;;21.79;100.00
10852;BME280;5479;52.046;6.314;2023-06-26T03:17:19;101073.13;;;21.75;100.00
10852;BME280;5479;52.046;6.314;2023-06-26T03:19:47;101078.28;;;21.68;100.00
10852;BME280;5479;52.046;6.314;2023-06-26T03:22:15;101074.41;;;21.71;100.00
10852;BME280;5479;52.046;6.314;2023-06-26T03:24:44;101084.34;;;21.70;100.00
10852;BME280;5479;52.046;6.314;2023-06-26T03:27:13;101092.59;;;21.69;100.00
10852;BME280;5479;52.046;6.314;2023-06-26T03:29:41;101094.44;;;21.68;100.00
10852;BME280;5479;52.046;6.314;2023-06-26T03:32:09;101096.28;;;21.67;100.00
10852;BME280;5479;52.046;6.314;2023-06-26T03:34:37;101090.59;;;21.71;100.00
10852;BME280;5479;52.046;6.314;2023-06-26T03:37:05;101098.00;;;21.69;100.00
10852;BME280;5479;52.046;6.314;2023-06-26T03:39:33;101098.00;;;21.69;100.00
10852;BME280;5479;52.046;6.314;2023-06-26T03:42:01;101096.91;;;21.79;100.00
10852;BME280;5479;52.046;6.314;2023-06-26T03:44:30;101099.06;;;21.76;100.00
10852;BME280;5479;52.046;6.314;2023-06-26T03:46:58;101097.22;;;21.76;100.00
10852;BME280;5479;52.046;6.314;2023-06-26T03:49:26;101100.75;;;21.77;100.00
10852;BME280;5479;52.046;6.314;2023-06-26T03:51:54;101101.38;;;21.71;100.00
10852;BME280;5479;52.046;6.314;2023-06-26T03:54:22;101114.16;;;21.69;100.00
10852;BME280;5479;52.046;6.314;2023-06-26T03:56:50;101113.47;;;21.67;100.00
10852;BME280;5479;52.046;6.314;2023-06-26T03:59:18;101124.94;;;21.51;100.00
10852;BME280;5479;52.046;6.314;2023-06-26T04:01:48;101116.31;;;21.47;100.00
10852;BME280;5479;52.046;6.314;2023-06-26T04:04:16;101129.94;;;21.46;100.00
10852;BME280;5479;52.046;6.314;2023-06-26T04:06:44;101120.00;;;21.46;100.00
10852;BME280;5479;52.046;6.314;2023-06-26T04:09:12;101118.41;;;21.53;100.00
10852;BME280;5479;52.046;6.314;2023-06-26T04:11:40;101122.31;;;21.59;100.00
10852;BME280;5479;52.046;6.314;2023-06-26T04:14:08;101114.78;;;21.62;100.00
10852;BME280;5479;52.046;6.314;2023-06-26T04:16:36;101121.94;;;21.72;100.00
10852;BME280;5479;52.046;6.314;2023-06-26T04:19:05;101132.19;;;21.68;100.00
10852;BME280;5479;52.046;6.314;2023-06-26T04:21:33;101124.34;;;21.75;100.00
10852;BME280;5479;52.046;6.314;2023-06-26T04:24:01;101122.41;;;21.85;100.00
10852;BME280;5479;52.046;6.314;2023-06-26T04:26:29;101134.28;;;21.92;100.00
10852;BME280;5479;52.046;6.314;2023-06-26T04:28:56;101124.81;;;21.88;100.00
10852;BME280;5479;52.046;6.314;2023-06-26T04:31:24;101130.50;;;21.85;100.00
10852;BME280;5479;52.046;6.314;2023-06-26T04:33:52;101135.50;;;21.80;100.00
10852;BME280;5479;52.046;6.314;2023-06-26T04:36:22;101138.50;;;21.77;100.00
10852;BME280;5479;52.046;6.314;2023-06-26T04:38:54;101144.34;;;21.54;100.00
10852;BME280;5479;52.046;6.314;2023-06-26T04:41:23;101144.94;;;21.48;100.00
10852;BME280;5479;52.046;6.314;2023-06-26T04:43:51;101141.94;;;21.51;100.00
10852;BME280;5479;52.046;6.314;2023-06-26T04:46:18;101140.66;;;21.55;100.00
10852;BME280;5479;52.046;6.314;2023-06-26T04:48:47;101149.72;;;21.54;100.00
10852;BME280;5479;52.046;6.314;2023-06-26T04:51:15;101154.97;;;21.56;100.00
10852;BME280;5479;52.046;6.314;2023-06-26T04:53:44;101161.81;;;21.50;100.00
10852;BME280;5479;52.046;6.314;2023-06-26T04:56:12;101164.13;;;21.63;100.00
10852;BME280;5479;52.046;6.314;2023-06-26T04:58:39;101170.09;;;21.67;100.00
10852;BME280;5479;52.046;6.314;2023-06-26T05:01:07;101167.66;;;21.91;100.00
10852;BME280;5479;52.046;6.314;2023-06-26T05:03:36;101172.03;;;21.92;100.00
10852;BME280;5479;52.046;6.314;2023-06-26T05:06:04;101169.63;;;21.89;100.00
10852;BME280;5479;52.046;6.314;2023-06-26T05:08:32;101165.47;;;21.77;100.00
10852;BME280;5479;52.046;6.314;2023-06-26T05:11:02;101179.53;;;21.71;100.00
10852;BME280;5479;52.046;6.314;2023-06-26T05:13:30;101184.28;;;21.59;100.00
10852;BME280;5479;52.046;6.314;2023-06-26T05:15:58;101186.00;;;21.60;100.00
10852;BME280;5479;52.046;6.314;2023-06-26T05:18:28;101182.06;;;21.54;100.00
10852;BME280;5479;52.046;6.314;2023-06-26T05:20:57;101180.47;;;21.61;100.00
10852;BME280;5479;52.046;6.314;2023-06-26T05:23:25;101176.00;;;21.52;100.00
10852;BME280;5479;52.046;6.314;2023-06-26T05:25:54;101191.25;;;21.61;100.00
10852;BME280;5479;52.046;6.314;2023-06-26T05:28:27;101185.31;;;21.76;100.00
10852;BME280;5479;52.046;6.314;2023-06-26T05:30:58;101182.13;;;21.90;100.00
10852;BME280;5479;52.046;6.314;2023-06-26T05:33:26;101186.00;;;21.78;100.00
10852;BME280;5479;52.046;6.314;2023-06-26T05:35:57;101189.41;;;21.80;100.00
10852;BME280;5479;52.046;6.314;2023-06-26T05:38:26;101189.78;;;21.85;100.00
10852;BME280;5479;52.046;6.314;2023-06-26T05:40:55;101199.16;;;21.90;100.00
10852;BME280;5479;52.046;6.314;2023-06-26T05:43:24;101206.78;;;21.95;100.00
10852;BME280;5479;52.046;6.314;2023-06-26T05:45:53;101210.31;;;22.13;100.00
10852;BME280;5479;52.046;6.314;2023-06-26T05:48:21;101207.31;;;22.16;100.00
10852;BME280;5479;52.046;6.314;2023-06-26T05:50:49;101207.53;;;22.05;100.00
10852;BME280;5479;52.046;6.314;2023-06-26T05:53:17;101217.41;;;22.14;100.00
10852;BME280;5479;52.046;6.314;2023-06-26T05:55:46;101228.16;;;22.32;100.00
10852;BME280;5479;52.046;6.314;2023-06-26T05:58:16;101230.81;;;22.93;100.00
10852;BME280;5479;52.046;6.314;2023-06-26T06:00:45;101231.06;;;22.73;100.00
10852;BME280;5479;52.046;6.314;2023-06-26T06:03:14;101234.97;;;22.79;100.00
10852;BME280;5479;52.046;6.314;2023-06-26T06:05:42;101235.31;;;22.76;100.00
10852;BME280;5479;52.046;6.314;2023-06-26T06:08:10;101236.78;;;22.53;100.00
10852;BME280;5479;52.046;6.314;2023-06-26T06:10:38;101241.34;;;22.52;100.00
10852;BME280;5479;52.046;6.314;2023-06-26T06:13:06;101242.28;;;22.87;100.00
10852;BME280;5479;52.046;6.314;2023-06-26T06:15:34;101247.00;;;22.85;100.00
10852;BME280;5479;52.046;6.314;2023-06-26T06:18:02;101254.63;;;22.89;100.00
10852;BME280;5479;52.046;6.314;2023-06-26T06:20:32;101256.59;;;22.79;100.00
10852;BME280;5479;52.046;6.314;2023-06-26T06:23:00;101260.66;;;23.17;100.00
10852;BME280;5479;52.046;6.314;2023-06-26T06:25:28;101259.41;;;23.29;100.00
10852;BME280;5479;52.046;6.314;2023-06-26T06:27:56;101262.88;;;23.47;100.00
10852;BME280;5479;52.046;6.314;2023-06-26T06:30:24;101275.13;;;23.59;100.00
10852;BME280;5479;52.046;6.314;2023-06-26T06:32:54;101271.63;;;23.41;100.00
10852;BME280;5479;52.046;6.314;2023-06-26T06:35:22;101282.66;;;23.97;100.00
10852;BME280;5479;52.046;6.314;2023-06-26T06:37:51;101284.59;;;24.86;100.00
10852;BME280;5479;52.046;6.314;2023-06-26T06:40:19;101294.97;;;25.53;100.00
10852;BME280;5479;52.046;6.314;2023-06-26T06:42:49;101296.91;;;26.37;100.00
10852;BME280;5479;52.046;6.314;2023-06-26T06:45:17;101299.34;;;26.47;95.80
10852;BME280;5479;52.046;6.314;2023-06-26T06:47:45;101295.72;;;26.77;92.01
10852;BME280;5479;52.046;6.314;2023-06-26T06:50:14;101296.94;;;26.52;90.52
10852;BME280;5479;52.046;6.314;2023-06-26T06:52:42;101294.53;;;27.61;80.93
10852;BME280;5479;52.046;6.314;2023-06-26T06:55:12;101297.03;;;27.77;77.16
10852;BME280;5479;52.046;6.314;2023-06-26T06:57:41;101300.63;;;28.34;72.88
10852;BME280;5479;52.046;6.314;2023-06-26T07:00:10;101295.81;;;28.79;69.02
10852;BME280;5479;52.046;6.314;2023-06-26T07:02:41;101295.84;;;29.34;64.23
10852;BME280;5479;52.046;6.314;2023-06-26T07:05:10;101293.59;;;29.92;60.11
10852;BME280;5479;52.046;6.314;2023-06-26T07:07:38;101301.66;;;29.65;61.16
10852;BME280;5479;52.046;6.314;2023-06-26T07:10:09;101311.47;;;28.49;63.89
10852;BME280;5479;52.046;6.314;2023-06-26T07:12:38;101317.59;;;29.21;62.94
10852;BME280;5479;52.046;6.314;2023-06-26T07:15:07;101318.13;;;28.25;64.48
10852;BME280;5479;52.046;6.314;2023-06-26T07:17:36;101320.06;;;29.50;60.39
10852;BME280;5479;52.046;6.314;2023-06-26T07:20:06;101322.19;;;28.71;62.64
10852;BME280;5479;52.046;6.314;2023-06-26T07:22:35;101326.47;;;29.08;63.58
10852;BME280;5479;52.046;6.314;2023-06-26T07:25:04;101320.09;;;28.52;64.88
10852;BME280;5479;52.046;6.314;2023-06-26T07:27:35;101319.44;;;28.50;62.56
10852;BME280;5479;52.046;6.314;2023-06-26T07:30:05;101329.88;;;29.17;60.18
10852;BME280;5479;52.046;6.314;2023-06-26T07:32:35;101332.81;;;29.43;57.78
10852;BME280;5479;52.046;6.314;2023-06-26T07:35:04;101336.06;;;28.77;59.23
10852;BME280;5479;52.046;6.314;2023-06-26T07:37:32;101333.59;;;30.12;54.51
10852;BME280;5479;52.046;6.314;2023-06-26T07:40:00;101333.56;;;30.06;54.33
10852;BME280;5479;52.046;6.314;2023-06-26T07:42:28;101345.16;;;29.73;55.23
10852;BME280;5479;52.046;6.314;2023-06-26T07:44:57;101348.81;;;27.98;60.50
10852;BME280;5479;52.046;6.314;2023-06-26T07:47:26;101355.50;;;28.52;59.50
10852;BME280;5479;52.046;6.314;2023-06-26T07:49:56;101352.41;;;27.54;59.44
10852;BME280;5479;52.046;6.314;2023-06-26T07:52:23;101365.03;;;26.95;62.36
10852;BME280;5479;52.046;6.314;2023-06-26T07:54:52;101369.28;;;25.83;71.76
10852;BME280;5479;52.046;6.314;2023-06-26T07:57:20;101376.63;;;25.66;78.90
10852;BME280;5479;52.046;6.314;2023-06-26T07:59:48;101378.50;;;25.42;86.00
10852;BME280;5479;52.046;6.314;2023-06-26T08:02:16;101372.00;;;24.96;93.27
10852;BME280;5479;52.046;6.314;2023-06-26T08:04:46;101364.78;;;26.60;82.43
10852;BME280;5479;52.046;6.314;2023-06-26T08:07:14;101365.25;;;27.46;72.44
10852;BME280;5479;52.046;6.314;2023-06-26T08:09:41;101365.88;;;26.73;75.65
10852;BME280;5479;52.046;6.314;2023-06-26T08:12:10;101378.53;;;25.50;82.86
10852;BME280;5479;52.046;6.314;2023-06-26T08:14:39;101380.94;;;25.04;87.98
10852;BME280;5479;52.046;6.314;2023-06-26T08:17:09;101382.28;;;24.68;93.99
10852;BME280;5479;52.046;6.314;2023-06-26T08:19:37;101381.91;;;25.60;87.41
10852;BME280;5479;52.046;6.314;2023-06-26T08:22:06;101400.72;;;25.61;85.45
10852;BME280;5479;52.046;6.314;2023-06-26T08:24:34;101393.13;;;24.76;89.90
10852;BME280;5479;52.046;6.314;2023-06-26T08:27:03;101400.06;;;25.35;87.00
10852;BME280;5479;52.046;6.314;2023-06-26T08:29:34;101401.19;;;26.20;78.80
10852;BME280;5479;52.046;6.314;2023-06-26T08:32:02;101386.44;;;27.80;65.90
10852;BME280;5479;52.046;6.314;2023-06-26T08:34:29;101389.25;;;28.01;63.18
10852;BME280;5479;52.046;6.314;2023-06-26T08:36:58;101383.81;;;27.86;64.43
10852;BME280;5479;52.046;6.314;2023-06-26T08:39:27;101382.91;;;29.08;61.56
10852;BME280;5479;52.046;6.314;2023-06-26T08:41:55;101396.00;;;28.98;61.00
10852;BME280;5479;52.046;6.314;2023-06-26T08:44:23;101388.41;;;27.57;63.23
10852;BME280;5479;52.046;6.314;2023-06-26T08:46:50;101411.50;;;26.55;68.88
10852;BME280;5479;52.046;6.314;2023-06-26T08:49:21;101413.25;;;25.62;77.38
10852;BME280;5479;52.046;6.314;2023-06-26T08:51:54;101418.03;;;26.07;77.76
10852;BME280;5479;52.046;6.314;2023-06-26T08:54:33;101420.53;;;27.01;68.08
10852;BME280;5479;52.046;6.314;2023-06-26T08:57:03;101404.66;;;27.94;64.50
10852;BME280;5479;52.046;6.314;2023-06-26T08:59:32;101409.72;;;29.53;56.83
10852;BME280;5479;52.046;6.314;2023-06-26T09:02:00;101402.50;;;30.68;51.60
10852;BME280;5479;52.046;6.314;2023-06-26T09:04:31;101399.41;;;31.04;51.55
10852;BME280;5479;52.046;6.314;2023-06-26T09:06:59;101412.78;;;30.66;50.32
10852;BME280;5479;52.046;6.314;2023-06-26T09:09:28;101408.63;;;28.78;54.71
10852;BME280;5479;52.046;6.314;2023-06-26T09:11:58;101416.69;;;27.33;60.29
10852;BME280;5479;52.046;6.314;2023-06-26T09:14:26;101416.63;;;26.81;61.05
10852;BME280;5479;52.046;6.314;2023-06-26T09:16:55;101421.81;;;27.94;59.80
10852;BME280;5479;52.046;6.314;2023-06-26T09:19:23;101416.94;;;28.69;55.73
10852;BME280;5479;52.046;6.314;2023-06-26T09:21:52;101422.72;;;30.20;49.98
10852;BME280;5479;52.046;6.314;2023-06-26T09:24:21;101420.97;;;30.46;47.38
10852;BME280;5479;52.046;6.314;2023-06-26T09:26:50;101432.19;;;30.84;45.00
10852;BME280;5479;52.046;6.314;2023-06-26T09:29:20;101428.91;;;31.22;45.21
10852;BME280;5479;52.046;6.314;2023-06-26T09:31:48;101425.53;;;31.59;44.96
10852;BME280;5479;52.046;6.314;2023-06-26T09:34:19;101431.69;;;32.18;43.06
10852;BME280;5479;52.046;6.314;2023-06-26T09:36:47;101437.28;;;30.94;43.61
10852;BME280;5479;52.046;6.314;2023-06-26T09:39:15;101434.94;;;29.55;48.25
10852;BME280;5479;52.046;6.314;2023-06-26T09:41:44;101447.50;;;29.56;47.41
10852;BME280;5479;52.046;6.314;2023-06-26T09:44:13;101449.63;;;29.12;48.06
10852;BME280;5479;52.046;6.314;2023-06-26T09:46:45;101443.50;;;27.88;49.15
10852;BME280;5479;52.046;6.314;2023-06-26T09:49:13;101455.66;;;26.10;53.83
10852;BME280;5479;52.046;6.314;2023-06-26T09:51:42;101450.22;;;26.26;56.64
10852;BME280;5479;52.046;6.314;2023-06-26T09:54:10;101449.38;;;27.47;54.92
10852;BME280;5479;52.046;6.314;2023-06-26T09:56:39;101445.31;;;28.75;51.57
10852;BME280;5479;52.046;6.314;2023-06-26T09:59:07;101445.31;;;27.95;52.22
10852;BME280;5479;52.046;6.314;2023-06-26T10:01:40;101458.22;;;27.64;55.16
10852;BME280;5479;52.046;6.314;2023-06-26T10:04:10;101458.81;;;28.83;52.29
10852;BME280;5479;52.046;6.314;2023-06-26T10:06:43;101447.31;;;30.20;46.76
10852;BME280;5479;52.046;6.314;2023-06-26T10:09:14;101452.94;;;30.12;44.73
10852;BME280;5479;52.046;6.314;2023-06-26T10:11:49;101458.63;;;29.55;43.02
10852;BME280;5479;52.046;6.314;2023-06-26T10:14:20;101467.63;;;28.85;43.40
10852;BME280;5479;52.046;6.314;2023-06-26T10:16:49;101462.75;;;28.81;43.45
10852;BME280;5479;52.046;6.314;2023-06-26T10:19:21;101473.13;;;29.55;41.63
10852;BME280;5479;52.046;6.314;2023-06-26T10:21:52;101477.06;;;29.25;43.01
10852;BME280;5479;52.046;6.314;2023-06-26T10:24:21;101470.03;;;28.95;44.93
10852;BME280;5479;52.046;6.314;2023-06-26T10:26:52;101481.91;;;28.51;44.70
10852;BME280;5479;52.046;6.314;2023-06-26T10:29:23;101477.47;;;27.63;42.99
10852;BME280;5479;52.046;6.314;2023-06-26T10:31:56;101483.13;;;28.34;41.87
10852;BME280;5479;52.046;6.314;2023-06-26T10:34:26;101485.69;;;28.86;38.54
10852;BME280;5479;52.046;6.314;2023-06-26T10:36:59;101483.56;;;28.52;38.58
10852;BME280;5479;52.046;6.314;2023-06-26T10:39:45;101483.84;;;29.29;38.35
10852;BME280;5479;52.046;6.314;2023-06-26T10:42:13;101485.16;;;29.61;36.04
10852;BME280;5479;52.046;6.314;2023-06-26T10:44:43;101488.22;;;29.30;36.75
10852;BME280;5479;52.046;6.314;2023-06-26T10:47:29;101486.00;;;29.61;37.00
10852;BME280;5479;52.046;6.314;2023-06-26T10:50:16;101490.28;;;29.49;39.43
10852;BME280;5479;52.046;6.314;2023-06-26T10:52:46;101507.44;;;29.43;39.91
10852;BME280;5479;52.046;6.314;2023-06-26T10:55:47;101504.28;;;29.67;39.83
10852;BME280;5479;52.046;6.314;2023-06-26T10:58:34;101504.19;;;29.12;40.01
10852;BME280;5479;52.046;6.314;2023-06-26T11:01:21;101497.59;;;28.20;42.23
10852;BME280;5479;52.046;6.314;2023-06-26T11:04:06;101502.81;;;28.65;40.54
10852;BME280;5479;52.046;6.314;2023-06-26T11:06:38;101509.97;;;29.02;37.97
10852;BME280;5479;52.046;6.314;2023-06-26T11:09:09;101499.31;;;28.86;38.47
10852;BME280;5479;52.046;6.314;2023-06-26T11:11:57;101524.72;;;28.57;40.04
10852;BME280;5479;52.046;6.314;2023-06-26T11:14:30;101531.38;;;26.52;44.63
10852;BME280;5479;52.046;6.314;2023-06-26T11:16:59;101527.81;;;25.97;46.88
10852;BME280;5479;52.046;6.314;2023-06-26T11:19:29;101539.66;;;26.20;45.92
10852;BME280;5479;52.046;6.314;2023-06-26T11:22:03;101536.47;;;26.55;44.72
10852;BME280;5479;52.046;6.314;2023-06-26T11:24:31;101534.88;;;27.00;43.32
10852;BME280;5479;52.046;6.314;2023-06-26T11:27:01;101539.47;;;27.52;42.55
10852;BME280;5479;52.046;6.314;2023-06-26T11:29:32;101534.75;;;27.84;42.71
10852;BME280;5479;52.046;6.314;2023-06-26T11:32:02;101538.91;;;28.09;41.43
10852;BME280;5479;52.046;6.314;2023-06-26T11:34:32;101549.53;;;28.19;40.41
10852;BME280;5479;52.046;6.314;2023-06-26T11:37:02;101532.53;;;28.02;42.25
10852;BME280;5479;52.046;6.314;2023-06-26T11:39:30;101544.13;;;27.81;40.92
10852;BME280;5479;52.046;6.314;2023-06-26T11:42:00;101541.41;;;27.44;41.41
10852;BME280;5479;52.046;6.314;2023-06-26T11:44:30;101544.69;;;27.91;41.03
10852;BME280;5479;52.046;6.314;2023-06-26T11:46:58;101550.13;;;27.77;42.14
10852;BME280;5479;52.046;6.314;2023-06-26T11:49:28;101559.66;;;27.58;41.32
10852;BME280;5479;52.046;6.314;2023-06-26T11:51:56;101565.22;;;27.11;42.69
10852;BME280;5479;52.046;6.314;2023-06-26T11:54:26;101584.63;;;26.77;41.99
10852;BME280;5479;52.046;6.314;2023-06-26T11:56:55;101578.38;;;26.61;42.39
10852;BME280;5479;52.046;6.314;2023-06-26T11:59:32;101586.16;;;26.72;41.21
10852;BME280;5479;52.046;6.314;2023-06-26T12:02:05;101595.25;;;26.40;39.99
10852;BME280;5479;52.046;6.314;2023-06-26T12:04:36;101596.53;;;26.13;41.47
10852;BME280;5479;52.046;6.314;2023-06-26T12:07:06;101595.00;;;25.87;42.29
10852;BME280;5479;52.046;6.314;2023-06-26T12:09:39;101597.94;;;26.56;43.16
10852;BME280;5479;52.046;6.314;2023-06-26T12:12:10;101593.63;;;26.70;43.01
10852;BME280;5479;52.046;6.314;2023-06-26T12:14:39;101587.94;;;27.49;43.48
10852;BME280;5479;52.046;6.314;2023-06-26T12:17:09;101583.25;;;28.03;41.88
10852;BME280;5479;52.046;6.314;2023-06-26T12:19:38;101593.97;;;27.82;40.02
10852;BME280;5479;52.046;6.314;2023-06-26T12:22:07;101596.78;;;26.43;43.36
10852;BME280;5479;52.046;6.314;2023-06-26T12:24:36;101603.25;;;26.33;42.99
10852;BME280;5479;52.046;6.314;2023-06-26T12:27:10;101606.00;;;25.93;42.23
10852;BME280;5479;52.046;6.314;2023-06-26T12:29:39;101593.88;;;26.44;42.42
10852;BME280;5479;52.046;6.314;2023-06-26T12:32:11;101596.97;;;26.25;41.85
10852;BME280;5479;52.046;6.314;2023-06-26T12:34:39;101608.19;;;26.77;41.52
10852;BME280;5479;52.046;6.314;2023-06-26T12:37:08;101609.53;;;26.10;41.52
10852;BME280;5479;52.046;6.314;2023-06-26T12:39:47;101612.63;;;26.15;43.34
10852;BME280;5479;52.046;6.314;2023-06-26T12:42:19;101615.50;;;25.73;44.96
10852;BME280;5479;52.046;6.314;2023-06-26T12:44:47;101614.59;;;25.40;45.73
10852;BME280;5479;52.046;6.314;2023-06-26T12:47:17;101616.09;;;25.27;46.20
10852;BME280;5479;52.046;6.314;2023-06-26T12:49:50;101615.44;;;25.33;45.99
10852;BME280;5479;52.046;6.314;2023-06-26T12:52:18;101620.25;;;25.87;44.87
10852;BME280;5479;52.046;6.314;2023-06-26T12:54:51;101620.53;;;26.32;42.58
10852;BME280;5479;52.046;6.314;2023-06-26T12:57:21;101605.97;;;26.09;43.17
10852;BME280;5479;52.046;6.314;2023-06-26T12:59:49;101613.66;;;25.57;43.04
10852;BME280;5479;52.046;6.314;2023-06-26T13:02:17;101607.38;;;25.49;41.95
10852;BME280;5479;52.046;6.314;2023-06-26T13:04:45;101599.84;;;25.35;43.30
10852;BME280;5479;52.046;6.314;2023-06-26T13:07:13;101617.16;;;25.50;42.19